Have a Safe July 4th! 

Flight Track Log - Related Links

Times and Time Zones

All times are in EDT time to prevent confusion due to time zone crossing. See the N1820F flight status page for this flight to view local times or setup timezone preferences in your user account.

Time Position Orientation Groundspeed Altitude Reporting Facility
EDT Latitude Longitude Course Direction KTS MPH feet Rate Location/Type
Mon 09:51:00 AM 40.5120 -75.7628 49° Northeast  Level FlightAware Approximate
Mon 09:52:00 AM 40.5342 -75.7290 49° Northeast  Level FlightAware Approximate
Mon 09:53:00 AM 40.5564 -75.6952 49° Northeast  Level FlightAware Approximate
Mon 09:54:00 AM 40.5777 -75.6603 43° Northeast  Level Estimated
Mon 09:55:00 AM 40.6017 -75.6287 45° Northeast  Level FlightAware Approximate
Mon 09:56:00 AM 40.6258 -75.5971 45° Northeast  Level FlightAware Approximate
Mon 09:57:00 AM 40.6498 -75.5654 45° Northeast  Level FlightAware Approximate
Mon 09:58:00 AM 40.6738 -75.5337 45° Northeast  Level FlightAware Approximate
Mon 09:59:00 AM 40.6978 -75.5020 45° Northeast  Level FlightAware Approximate
Mon 10:00:00 AM 40.7219 -75.4703 45° Northeast  Level FlightAware Approximate
Mon 10:01:00 AM 40.7458 -75.4386 45° Northeast  Level FlightAware Approximate
Mon 10:02:00 AM 40.7698 -75.4068 45° Northeast  Level FlightAware Approximate
Mon 10:03:00 AM 40.7938 -75.3750 45° Northeast  Level FlightAware Approximate
Mon 10:04:00 AM 40.8178 -75.3432 45° Northeast  Level FlightAware Approximate
Mon 10:05:00 AM 40.8418 -75.3114 45° Northeast  Level FlightAware Approximate
Mon 10:06:00 AM 40.8657 -75.2795 45° Northeast  Level FlightAware Approximate
Mon 10:07:00 AM 40.8897 -75.2477 45° Northeast  Level FlightAware Approximate
Mon 10:08:00 AM 40.9097 -75.2114 42° Northeast  Level Estimated
Mon 10:09:00 AM 40.9346 -75.1808 43° Northeast  Level FlightAware Approximate
Mon 10:10:00 AM 40.9596 -75.1503 43° Northeast  Level FlightAware Approximate
Mon 10:10:28 AM 41.2000 -74.8667 43° Northeast 186 214 5,100  Level New York TRACON
Mon 10:11:00 AM 40.9845 -75.1197 43° Northeast  Level FlightAware Approximate
Mon 10:11:22 AM 41.2333 -74.8333 37° Northeast 185 213 5,100  Level New York TRACON
Mon 10:12:00 AM 41.0094 -75.0891 43° Northeast  Level FlightAware Approximate
Mon 10:12:22 AM 41.2667 -74.7833 48° Northeast 198 228 4,600  Level New York TRACON
Mon 10:13:00 AM 41.0343 -75.0585 43° Northeast  Level FlightAware Approximate
Mon 10:13:22 AM 41.3000 -74.7333 48° Northeast 200 230 4,100  Level New York TRACON
Mon 10:14:00 AM 41.0535 -75.0213 46° Northeast  Level Estimated
Mon 10:14:22 AM 41.3500 -74.6833 37° Northeast 179 206 4,200  Level New York TRACON
Mon 10:15:00 AM 41.0784 -74.9906 43° Northeast  Level FlightAware Approximate
Mon 10:15:22 AM 41.3833 -74.6333 48° Northeast 178 205 4,100  Level New York TRACON
Mon 10:16:22 AM 41.4167 -74.5833 48° Northeast 176 203 4,100  Level New York TRACON
Mon 10:17:22 AM 41.4500 -74.5500 37° Northeast 180 207 4,100  Level New York TRACON
Mon 10:18:22 AM 41.4833 -74.5000 48° Northeast 185 213 4,100  Level New York TRACON
Mon 10:19:22 AM 41.5333 -74.4500 37° Northeast 185 213 4,100  Level New York TRACON
Mon 10:20:22 AM 41.5667 -74.4167 37° Northeast 184 212 4,100  Level New York TRACON
Mon 10:21:22 AM 41.6167 -74.3667 37° Northeast 188 216 4,100  Level New York TRACON
Mon 10:22:22 AM 41.6500 -74.3167 48° Northeast 190 219 4,100  Level New York TRACON
Mon 10:23:22 AM 41.6833 -74.2833 37° Northeast 188 216 4,100  Level New York TRACON
Mon 10:24:16 AM 41.7333 -74.2333 37° Northeast 192 221 4,100  Level New York TRACON
Mon 10:25:16 AM 41.7500 -74.1833 66° East 171 197 4,100  Level New York TRACON
Mon 10:26:16 AM 41.7667 -74.1333 66° East 169 194 4,100  Level New York TRACON
Mon 10:27:16 AM 41.7833 -74.0667 71° East 174 200 4,100  Level New York TRACON
Mon 10:28:16 AM 41.8167 -74.0167 48° Northeast 171 197 4,100  Level New York TRACON
Mon 10:29:16 AM 41.8333 -73.9500 71° East 168 193 4,100  Level New York TRACON
Mon 10:30:16 AM 41.8333 -73.9000 90° East 156 180 4,100  Level New York TRACON
Mon 10:31:16 AM 41.8500 -73.8500 66° East 138 159 4,100  Level New York TRACON
Mon 10:32:16 AM 41.8333 -73.8000 114° Southeast 137 158 4,100  Level New York TRACON
Mon 10:33:16 AM 41.8333 -73.7500 90° East 125 144 4,100 -250 Level New York TRACON
Mon 10:34:16 AM 41.8167 -73.7167 124° Southeast 135 155 3,600 -526 Descending New York TRACON
Mon 10:35:10 AM 41.8000 -73.6667 114° Southeast 151 174 3,100 -250 Descending New York TRACON
Mon 10:36:16 AM 41.7667 -73.6667 180° South 118 136 3,100  Level New York TRACON
Mon 10:37:16 AM 41.7500 -73.7000 236° Southwest 108 124 3,100  Level New York TRACON
Mon 10:38:16 AM 41.7333 -73.7333 236° Southwest 114 131 3,100 -50 Level New York TRACON
Mon 10:39:16 AM 41.7000 -73.7500 200° South 90 104 3,000 -400 Descending New York TRACON
Mon 10:40:16 AM 41.6833 -73.7833 236° Southwest 95 109 2,300 -650 Descending New York TRACON
Mon 10:41:16 AM 41.6667 -73.8000 217° Southwest 95 109 1,700 -550 Descending New York TRACON
Mon 10:42:16 AM 41.6500 -73.8333 236° Southwest 94 108 1,200 -524 Descending New York TRACON
Mon 10:43:22 AM 41.6333 -73.8667 236° Southwest 93 107 600 -545 Descending New York TRACON

Login

Don't have an account? Register now (free) for customized features, flight alerts, and more!